createdAt,value
2023-06-05T00:00:59.543Z,20.58
2023-06-05T00:03:28.178Z,20.48
2023-06-05T00:05:55.599Z,20.36
2023-06-05T00:08:22.944Z,20.39
2023-06-05T00:10:49.875Z,20.20
2023-06-05T00:13:17.332Z,20.12
2023-06-05T00:15:44.326Z,20.18
2023-06-05T00:18:11.347Z,20.01
2023-06-05T00:20:38.390Z,20.14
2023-06-05T00:23:05.405Z,20.16
2023-06-05T00:25:32.217Z,20.12
2023-06-05T00:27:59.005Z,20.00
2023-06-05T00:30:25.875Z,19.94
2023-06-05T00:32:52.844Z,19.94
2023-06-05T00:35:19.787Z,19.95
2023-06-05T00:37:47.996Z,19.95
2023-06-05T00:40:15.478Z,19.91
2023-06-05T00:42:42.285Z,19.95
2023-06-05T00:45:09.596Z,19.85
2023-06-05T00:47:37.185Z,19.92
2023-06-05T00:50:04.726Z,19.87
2023-06-05T00:52:33.739Z,19.88
2023-06-05T00:55:02.301Z,19.81
2023-06-05T00:57:29.479Z,19.79
2023-06-05T00:59:56.520Z,19.70
2023-06-05T01:02:23.563Z,19.69
2023-06-05T01:04:50.621Z,19.65
2023-06-05T01:07:18.904Z,19.60
2023-06-05T01:09:45.905Z,19.58
2023-06-05T01:12:18.514Z,19.54
2023-06-05T01:14:49.233Z,19.50
2023-06-05T01:17:20.277Z,19.52
2023-06-05T01:19:49.584Z,19.48
2023-06-05T01:22:17.131Z,19.49
2023-06-05T01:24:43.922Z,19.41
2023-06-05T01:27:19.733Z,19.44
2023-06-05T01:30:08.449Z,19.40
2023-06-05T01:33:03.455Z,19.35
2023-06-05T01:35:34.005Z,19.31
2023-06-05T01:38:03.703Z,19.33
2023-06-05T01:40:32.085Z,19.32
2023-06-05T01:43:01.255Z,19.24
2023-06-05T01:45:28.779Z,19.17
2023-06-05T01:47:58.017Z,19.09
2023-06-05T01:50:25.864Z,19.02
2023-06-05T01:52:53.439Z,18.95
2023-06-05T01:55:25.197Z,18.89
2023-06-05T01:57:52.505Z,18.93
2023-06-05T02:00:19.811Z,18.92
2023-06-05T02:02:48.662Z,18.80
2023-06-05T02:05:16.827Z,18.77
2023-06-05T02:07:54.352Z,18.78
2023-06-05T02:10:21.982Z,18.74
2023-06-05T02:12:49.673Z,18.76
2023-06-05T02:15:16.832Z,18.70
2023-06-05T02:17:54.096Z,18.65
2023-06-05T02:20:24.616Z,18.58
2023-06-05T02:22:53.101Z,18.57
2023-06-05T02:25:20.337Z,18.57
2023-06-05T02:27:48.994Z,18.55
2023-06-05T02:30:16.283Z,18.53
2023-06-05T02:32:44.912Z,18.48
2023-06-05T02:35:12.854Z,18.43
2023-06-05T02:37:44.583Z,18.49
2023-06-05T02:40:14.241Z,18.48
2023-06-05T02:42:41.706Z,18.46
2023-06-05T02:45:09.830Z,18.42
2023-06-05T02:47:37.385Z,18.43
2023-06-05T02:50:05.367Z,18.44
2023-06-05T02:52:36.736Z,18.47
2023-06-05T02:55:10.767Z,18.45
2023-06-05T02:57:42.419Z,18.43
2023-06-05T03:00:15.765Z,18.39
2023-06-05T03:02:43.285Z,18.28
2023-06-05T03:05:11.092Z,18.20
2023-06-05T03:07:38.096Z,18.14
2023-06-05T03:10:08.791Z,18.09
2023-06-05T03:12:35.635Z,18.09
2023-06-05T03:15:02.804Z,18.07
2023-06-05T03:17:31.702Z,18.03
2023-06-05T03:19:58.548Z,18.02
2023-06-05T03:22:26.274Z,18.02
2023-06-05T03:24:53.304Z,18.04
2023-06-05T03:27:20.349Z,18.02
2023-06-05T03:29:47.217Z,17.94
2023-06-05T03:32:13.990Z,17.97
2023-06-05T03:34:43.942Z,17.93
2023-06-05T03:37:11.055Z,17.92
2023-06-05T03:39:39.450Z,17.90
2023-06-05T03:42:10.156Z,17.85
2023-06-05T03:44:36.964Z,17.84
2023-06-05T03:47:04.738Z,17.83
2023-06-05T03:49:32.904Z,17.85
2023-06-05T03:52:04.659Z,17.84
2023-06-05T03:54:34.715Z,17.89
2023-06-05T03:57:01.919Z,17.94
2023-06-05T03:59:29.718Z,17.93
2023-06-05T04:02:00.960Z,17.94
2023-06-05T04:04:27.725Z,17.95
2023-06-05T04:06:57.730Z,17.94
2023-06-05T04:09:26.845Z,17.99
2023-06-05T04:11:54.771Z,17.95
2023-06-05T04:14:21.940Z,17.99
2023-06-05T04:16:49.356Z,18.00
2023-06-05T04:19:22.094Z,17.97
2023-06-05T04:21:53.205Z,18.02
2023-06-05T04:24:20.114Z,18.02
2023-06-05T04:26:48.685Z,18.07
2023-06-05T04:29:16.983Z,18.06
2023-06-05T04:31:48.380Z,18.09
2023-06-05T04:34:15.664Z,18.24
2023-06-05T04:36:42.538Z,18.31
2023-06-05T04:39:17.644Z,18.35
2023-06-05T04:41:47.857Z,18.44
2023-06-05T04:44:23.441Z,18.51
2023-06-05T04:46:50.630Z,18.51
2023-06-05T04:49:17.806Z,18.62
2023-06-05T04:51:45.299Z,18.70
2023-06-05T04:54:13.367Z,18.83
2023-06-05T04:56:41.008Z,18.94
2023-06-05T04:59:09.092Z,18.97
2023-06-05T05:01:36.426Z,19.09
2023-06-05T05:04:03.796Z,19.24
2023-06-05T05:06:32.111Z,19.33
2023-06-05T05:08:59.285Z,19.48
2023-06-05T05:11:27.330Z,19.53
2023-06-05T05:13:54.306Z,19.63
2023-06-05T05:16:22.072Z,19.83
2023-06-05T05:18:48.995Z,19.92
2023-06-05T05:21:16.816Z,20.02
2023-06-05T05:23:43.656Z,20.12
2023-06-05T05:26:11.475Z,20.22
2023-06-05T05:28:38.200Z,20.43
2023-06-05T05:31:05.808Z,20.50
2023-06-05T05:33:35.064Z,20.64
2023-06-05T05:36:03.576Z,20.76
2023-06-05T05:38:30.764Z,20.90
2023-06-05T05:40:57.574Z,21.05
2023-06-05T05:43:24.372Z,21.14
2023-06-05T05:45:51.287Z,21.29
2023-06-05T05:48:18.498Z,21.42
2023-06-05T05:50:45.554Z,21.43
2023-06-05T05:53:12.300Z,21.61
2023-06-05T05:55:39.535Z,21.71
2023-06-05T05:58:06.363Z,21.84
2023-06-05T06:00:33.227Z,21.77
2023-06-05T06:03:00.243Z,22.04
2023-06-05T06:05:27.222Z,22.18
2023-06-05T06:07:53.923Z,22.46
2023-06-05T06:10:21.001Z,22.61
2023-06-05T06:12:47.879Z,22.62
2023-06-05T06:15:15.261Z,22.71
2023-06-05T06:17:42.133Z,22.95
2023-06-05T06:20:12.457Z,22.92
2023-06-05T06:22:39.848Z,23.27
2023-06-05T06:25:08.197Z,23.38
2023-06-05T06:27:36.116Z,23.60
2023-06-05T06:30:03.749Z,23.86
2023-06-05T06:32:30.917Z,23.88
2023-06-05T06:34:58.259Z,24.08
2023-06-05T06:37:25.603Z,24.01
2023-06-05T06:39:52.406Z,23.99
2023-06-05T06:42:19.435Z,24.09
2023-06-05T06:44:56.961Z,24.40
2023-06-05T06:47:25.815Z,24.70
2023-06-05T06:49:52.981Z,24.88
2023-06-05T06:52:22.600Z,24.85
2023-06-05T06:54:51.516Z,25.12
2023-06-05T06:57:18.748Z,25.43
2023-06-05T06:59:46.727Z,25.64
2023-06-05T07:02:18.953Z,25.89
2023-06-05T07:04:45.922Z,26.04
2023-06-05T07:07:15.230Z,26.52
2023-06-05T07:09:43.594Z,26.52
2023-06-05T07:12:21.518Z,26.56
2023-06-05T07:14:48.360Z,26.50
2023-06-05T07:17:15.099Z,26.56
2023-06-05T07:19:41.974Z,26.80
2023-06-05T07:22:08.765Z,26.61
2023-06-05T07:24:36.647Z,26.87
2023-06-05T07:27:04.580Z,26.94
2023-06-05T07:29:31.530Z,27.09
2023-06-05T07:31:59.571Z,27.08
2023-06-05T07:34:29.369Z,27.06
2023-06-05T07:36:57.574Z,27.29
2023-06-05T07:39:24.526Z,27.36
2023-06-05T07:41:51.555Z,27.32
2023-06-05T07:44:19.988Z,27.41
2023-06-05T07:46:48.592Z,27.54
2023-06-05T07:49:16.971Z,27.61
2023-06-05T07:51:44.720Z,27.63
2023-06-05T07:54:12.857Z,27.87
2023-06-05T07:56:40.653Z,27.93
2023-06-05T07:59:08.425Z,28.01
2023-06-05T08:01:39.772Z,28.31
2023-06-05T08:04:08.793Z,28.42
2023-06-05T08:06:38.952Z,28.37
2023-06-05T08:09:07.245Z,28.48
2023-06-05T08:11:34.085Z,28.57
2023-06-05T08:14:00.891Z,28.85
2023-06-05T08:16:27.734Z,29.21
2023-06-05T08:18:54.527Z,29.26
2023-06-05T08:21:21.393Z,29.31
2023-06-05T08:23:48.124Z,29.33
2023-06-05T08:26:14.993Z,29.20
2023-06-05T08:28:42.732Z,29.73
2023-06-05T08:31:10.890Z,30.16
2023-06-05T08:33:39.015Z,30.73
2023-06-05T08:36:06.534Z,30.50
2023-06-05T08:38:34.658Z,30.88
2023-06-05T08:41:06.530Z,31.04
2023-06-05T08:43:33.401Z,31.19
2023-06-05T08:46:00.364Z,31.17
2023-06-05T08:48:27.335Z,31.19
2023-06-05T08:50:56.004Z,31.22
2023-06-05T08:53:26.682Z,31.36
2023-06-05T08:55:55.847Z,31.05
2023-06-05T08:58:23.165Z,31.31
2023-06-05T09:00:50.325Z,31.34
2023-06-05T09:03:19.589Z,31.56
2023-06-05T09:05:47.190Z,32.29
2023-06-05T09:08:15.697Z,32.38
2023-06-05T09:10:42.416Z,32.78
2023-06-05T09:13:10.588Z,32.76
2023-06-05T09:15:38.060Z,33.30
2023-06-05T09:18:09.803Z,33.63
2023-06-05T09:20:41.802Z,33.94
2023-06-05T09:23:28.245Z,34.17
2023-06-05T09:25:59.905Z,34.93
2023-06-05T09:28:27.508Z,34.55
2023-06-05T09:30:54.221Z,34.66
2023-06-05T09:33:21.096Z,34.81
2023-06-05T09:35:47.876Z,35.23
2023-06-05T09:38:30.951Z,35.50
2023-06-05T09:41:04.530Z,35.79
2023-06-05T09:43:31.611Z,36.21
2023-06-05T09:45:58.457Z,36.41
2023-06-05T09:48:26.741Z,36.45
2023-06-05T09:50:54.510Z,36.97
2023-06-05T09:53:22.615Z,36.77
2023-06-05T09:55:49.608Z,36.96
2023-06-05T09:58:18.734Z,37.56
2023-06-05T10:00:47.327Z,38.12
2023-06-05T10:03:18.757Z,38.01
2023-06-05T10:05:49.564Z,37.84
2023-06-05T10:08:17.447Z,38.02
2023-06-05T10:10:44.429Z,38.74
2023-06-05T10:13:12.642Z,39.15
2023-06-05T10:15:43.383Z,39.50
2023-06-05T10:18:10.949Z,39.18
2023-06-05T10:20:38.245Z,39.36
2023-06-05T10:23:06.526Z,39.16
2023-06-05T10:25:35.952Z,39.39
2023-06-05T10:28:32.132Z,40.15
2023-06-05T10:31:27.516Z,40.99
2023-06-05T10:34:31.911Z,41.01
2023-06-05T10:37:36.826Z,40.85
2023-06-05T10:40:05.947Z,41.32
2023-06-05T10:42:32.905Z,41.95
2023-06-05T10:45:00.638Z,41.53
2023-06-05T10:47:51.990Z,39.60
2023-06-05T10:50:19.071Z,40.45
2023-06-05T10:52:50.494Z,41.43
2023-06-05T10:55:18.295Z,41.36
2023-06-05T10:58:04.093Z,41.66
2023-06-05T11:00:34.351Z,42.22
2023-06-05T11:03:02.334Z,43.08
2023-06-05T11:05:30.583Z,42.49
2023-06-05T11:08:15.202Z,42.48
2023-06-05T11:11:04.892Z,42.70
2023-06-05T11:13:57.164Z,43.65
2023-06-05T11:16:31.679Z,43.46
2023-06-05T11:19:16.816Z,42.55
2023-06-05T11:22:03.966Z,42.26
2023-06-05T11:24:31.503Z,42.74
2023-06-05T11:26:58.240Z,43.10
2023-06-05T11:29:26.926Z,44.03
2023-06-05T11:31:54.737Z,44.60
2023-06-05T11:34:21.981Z,43.86
2023-06-05T11:36:51.795Z,43.27
2023-06-05T11:39:20.264Z,43.10
2023-06-05T11:41:49.230Z,42.96
2023-06-05T11:44:16.415Z,44.14
2023-06-05T11:46:44.685Z,43.37
2023-06-05T11:49:28.240Z,44.08
2023-06-05T11:51:56.032Z,44.09
2023-06-05T11:54:35.210Z,43.85
2023-06-05T11:57:13.215Z,42.78
2023-06-05T11:59:40.242Z,42.84
2023-06-05T12:02:07.877Z,42.48
2023-06-05T12:04:35.790Z,41.85
2023-06-05T12:07:03.849Z,40.76
2023-06-05T12:09:31.052Z,39.40
2023-06-05T12:12:08.160Z,37.69
2023-06-05T12:14:35.775Z,35.86
2023-06-05T12:17:10.903Z,35.64
2023-06-05T12:19:38.140Z,35.25
2023-06-05T12:22:06.694Z,35.36
2023-06-05T12:24:34.869Z,35.64
2023-06-05T12:27:05.043Z,36.04
2023-06-05T12:29:34.156Z,35.99
2023-06-05T12:32:03.366Z,34.90
2023-06-05T12:34:58.157Z,34.92
2023-06-05T12:37:45.607Z,35.14
2023-06-05T12:40:14.937Z,34.64
2023-06-05T12:42:46.686Z,34.16
2023-06-05T12:45:13.859Z,33.91
2023-06-05T12:47:41.923Z,34.06
2023-06-05T12:50:13.205Z,33.54
2023-06-05T12:52:42.141Z,33.71
2023-06-05T12:55:09.858Z,33.45
2023-06-05T12:57:36.655Z,33.36
2023-06-05T13:00:15.121Z,33.58
2023-06-05T13:02:46.282Z,33.50
2023-06-05T13:05:13.533Z,33.51
2023-06-05T13:07:40.885Z,33.68
2023-06-05T13:10:08.716Z,33.49
2023-06-05T13:12:35.626Z,33.31
2023-06-05T13:15:03.667Z,33.39
2023-06-05T13:17:34.446Z,33.34
2023-06-05T13:20:01.466Z,33.50
2023-06-05T13:22:28.434Z,33.65
2023-06-05T13:24:55.391Z,33.69
2023-06-05T13:27:22.297Z,33.62
2023-06-05T13:29:49.396Z,33.37
2023-06-05T13:32:16.581Z,33.11
2023-06-05T13:34:43.359Z,32.83
2023-06-05T13:37:14.467Z,32.65
2023-06-05T13:39:41.685Z,32.74
2023-06-05T13:42:09.671Z,32.91
2023-06-05T13:44:36.475Z,33.23
2023-06-05T13:47:04.397Z,33.08
2023-06-05T13:49:32.305Z,32.84
2023-06-05T13:51:59.153Z,32.75
2023-06-05T13:54:25.974Z,32.74
2023-06-05T13:56:52.835Z,32.84
2023-06-05T13:59:19.773Z,32.73
2023-06-05T14:01:46.583Z,33.12
2023-06-05T14:04:13.439Z,33.10
2023-06-05T14:06:42.794Z,33.15
2023-06-05T14:09:09.843Z,33.11
2023-06-05T14:11:37.860Z,33.12
2023-06-05T14:14:04.830Z,32.80
2023-06-05T14:16:32.154Z,32.42
2023-06-05T14:18:58.978Z,32.58
2023-06-05T14:21:26.263Z,32.61
2023-06-05T14:23:53.067Z,32.33
2023-06-05T14:26:19.768Z,32.42
2023-06-05T14:28:46.459Z,32.40
2023-06-05T14:31:14.016Z,32.36
2023-06-05T14:33:41.221Z,32.50
2023-06-05T14:36:08.366Z,32.82
2023-06-05T14:38:35.508Z,32.73
2023-06-05T14:41:02.279Z,32.78
2023-06-05T14:43:29.068Z,32.76
2023-06-05T14:45:55.902Z,32.68
2023-06-05T14:48:22.651Z,32.63
2023-06-05T14:50:50.720Z,32.67
2023-06-05T14:53:17.509Z,32.77
2023-06-05T14:55:44.248Z,32.50
2023-06-05T14:58:11.719Z,32.07
2023-06-05T15:00:39.240Z,31.92
2023-06-05T15:03:06.365Z,31.98
2023-06-05T15:05:33.625Z,32.37
2023-06-05T15:08:00.537Z,32.42
2023-06-05T15:10:28.021Z,31.95
2023-06-05T15:12:58.665Z,31.69
2023-06-05T15:15:26.391Z,31.75
2023-06-05T15:17:56.175Z,31.57
2023-06-05T15:20:24.571Z,31.62
2023-06-05T15:23:11.444Z,31.46
2023-06-05T15:25:41.464Z,31.27
2023-06-05T15:28:08.243Z,31.56
2023-06-05T15:30:34.990Z,31.63
2023-06-05T15:33:01.852Z,31.64
2023-06-05T15:35:28.776Z,31.54
2023-06-05T15:37:56.207Z,31.36
2023-06-05T15:40:22.931Z,31.14
2023-06-05T15:43:06.501Z,31.12
2023-06-05T15:45:33.802Z,31.08
2023-06-05T15:48:00.924Z,31.00
2023-06-05T15:50:27.833Z,30.76
2023-06-05T15:52:54.766Z,30.86
2023-06-05T15:55:21.660Z,30.56
2023-06-05T15:57:49.471Z,30.75
2023-06-05T16:00:18.375Z,30.81
2023-06-05T16:02:45.884Z,30.98
2023-06-05T16:05:13.212Z,30.91
2023-06-05T16:07:40.588Z,31.00
2023-06-05T16:10:07.794Z,30.88
2023-06-05T16:12:34.712Z,30.95
2023-06-05T16:15:01.776Z,31.02
2023-06-05T16:17:29.001Z,31.01
2023-06-05T16:19:58.330Z,30.87
2023-06-05T16:22:25.677Z,30.95
2023-06-05T16:24:52.966Z,30.96
2023-06-05T16:27:20.715Z,30.96
2023-06-05T16:29:47.563Z,31.05
2023-06-05T16:32:14.602Z,30.88
2023-06-05T16:34:41.905Z,30.82
2023-06-05T16:37:09.053Z,30.17
2023-06-05T16:39:36.235Z,30.14
2023-06-05T16:42:03.922Z,30.17
2023-06-05T16:44:31.117Z,30.02
2023-06-05T16:46:57.998Z,30.00
2023-06-05T16:49:24.820Z,29.76
2023-06-05T16:51:51.673Z,29.71
2023-06-05T16:54:18.780Z,29.71
2023-06-05T16:56:45.512Z,29.71
2023-06-05T16:59:13.436Z,29.63
2023-06-05T17:01:40.305Z,29.49
2023-06-05T17:04:08.890Z,29.62
2023-06-05T17:06:36.696Z,29.65
2023-06-05T17:09:04.545Z,29.63
2023-06-05T17:11:32.102Z,29.64
2023-06-05T17:13:59.407Z,29.60
2023-06-05T17:16:26.287Z,29.60
2023-06-05T17:18:53.096Z,29.50
2023-06-05T17:21:20.363Z,29.50
2023-06-05T17:23:48.909Z,29.54
2023-06-05T17:26:16.454Z,29.40
2023-06-05T17:28:43.301Z,29.33
2023-06-05T17:31:10.511Z,29.26
2023-06-05T17:33:37.504Z,29.25
2023-06-05T17:36:04.474Z,29.14
2023-06-05T17:38:31.471Z,29.28
2023-06-05T17:40:58.375Z,29.13
2023-06-05T17:43:25.181Z,29.03
2023-06-05T17:45:51.996Z,28.99
2023-06-05T17:48:18.897Z,28.80
2023-06-05T17:50:46.073Z,28.88
2023-06-05T17:53:13.025Z,28.87
2023-06-05T17:55:39.954Z,28.92
2023-06-05T17:58:06.698Z,28.82
2023-06-05T18:00:33.731Z,28.70
2023-06-05T18:03:00.907Z,28.65
2023-06-05T18:05:27.829Z,28.56
2023-06-05T18:07:54.595Z,28.46
2023-06-05T18:10:21.948Z,28.43
2023-06-05T18:12:48.740Z,28.25
2023-06-05T18:15:15.703Z,28.07
2023-06-05T18:17:42.451Z,28.06
2023-06-05T18:20:09.803Z,27.98
2023-06-05T18:22:36.657Z,27.94
2023-06-05T18:25:04.063Z,27.86
2023-06-05T18:27:31.166Z,27.69
2023-06-05T18:29:57.989Z,27.72
2023-06-05T18:32:25.044Z,27.57
2023-06-05T18:34:51.886Z,27.50
2023-06-05T18:37:18.681Z,27.40
2023-06-05T18:39:45.863Z,27.28
2023-06-05T18:42:12.710Z,27.19
2023-06-05T18:44:39.492Z,27.10
2023-06-05T18:47:09.014Z,27.14
2023-06-05T18:49:36.433Z,27.04
2023-06-05T18:52:03.337Z,26.97
2023-06-05T18:54:30.111Z,26.92
2023-06-05T18:56:57.060Z,26.79
2023-06-05T18:59:23.796Z,26.77
2023-06-05T19:01:50.683Z,26.74
2023-06-05T19:04:17.622Z,26.61
2023-06-05T19:06:44.474Z,26.50
2023-06-05T19:09:11.440Z,26.41
2023-06-05T19:11:40.838Z,26.34
2023-06-05T19:14:07.630Z,26.27
2023-06-05T19:16:34.968Z,26.21
2023-06-05T19:19:01.874Z,26.19
2023-06-05T19:21:28.593Z,26.05
2023-06-05T19:23:55.404Z,25.90
2023-06-05T19:26:22.725Z,26.00
2023-06-05T19:28:49.490Z,25.94
2023-06-05T19:31:16.609Z,25.91
2023-06-05T19:33:43.541Z,25.92
2023-06-05T19:36:10.440Z,25.80
2023-06-05T19:38:37.272Z,25.79
2023-06-05T19:41:05.027Z,25.80
2023-06-05T19:43:32.088Z,25.81
2023-06-05T19:45:58.863Z,25.77
2023-06-05T19:48:25.608Z,25.72
2023-06-05T19:50:52.467Z,25.60
2023-06-05T19:53:19.343Z,25.60
2023-06-05T19:55:46.177Z,25.54
2023-06-05T19:58:13.021Z,25.58
2023-06-05T20:00:39.857Z,25.47
2023-06-05T20:03:06.746Z,25.23
2023-06-05T20:05:33.742Z,25.15
2023-06-05T20:08:00.582Z,25.08
2023-06-05T20:10:27.404Z,25.02
2023-06-05T20:12:54.152Z,24.92
2023-06-05T20:15:21.196Z,24.90
2023-06-05T20:17:48.077Z,24.82
2023-06-05T20:20:15.317Z,24.83
2023-06-05T20:22:42.136Z,24.74
2023-06-05T20:25:09.704Z,24.72
2023-06-05T20:27:38.346Z,24.67
2023-06-05T20:30:06.922Z,24.52
2023-06-05T20:32:33.800Z,24.46
2023-06-05T20:35:00.583Z,24.41
2023-06-05T20:37:31.246Z,24.39
2023-06-05T20:39:59.731Z,24.26
2023-06-05T20:42:28.464Z,24.19
2023-06-05T20:44:58.656Z,24.19
2023-06-05T20:47:26.539Z,24.11
2023-06-05T20:49:58.768Z,24.08
2023-06-05T20:52:25.832Z,24.04
2023-06-05T20:54:52.662Z,24.03
2023-06-05T20:57:21.318Z,24.06
2023-06-05T20:59:51.606Z,24.00
2023-06-05T21:02:18.474Z,23.96
2023-06-05T21:04:46.212Z,23.87
2023-06-05T21:07:13.033Z,23.85
2023-06-05T21:09:40.887Z,23.84
2023-06-05T21:12:08.512Z,23.83
2023-06-05T21:14:38.685Z,23.90
2023-06-05T21:17:07.285Z,23.85
2023-06-05T21:19:34.225Z,23.82
2023-06-05T21:22:02.607Z,23.68
2023-06-05T21:24:29.321Z,23.74
2023-06-05T21:26:57.017Z,23.80
2023-06-05T21:29:24.094Z,23.74
2023-06-05T21:31:51.169Z,23.70
2023-06-05T21:34:18.743Z,23.68
2023-06-05T21:36:46.208Z,23.65
2023-06-05T21:39:16.742Z,23.52
2023-06-05T21:41:44.472Z,23.51
2023-06-05T21:44:11.448Z,23.40
2023-06-05T21:46:38.344Z,23.42
2023-06-05T21:49:05.661Z,23.32
2023-06-05T21:51:34.523Z,23.33
2023-06-05T21:54:01.995Z,23.34
2023-06-05T21:56:28.795Z,23.36
2023-06-05T21:58:55.788Z,23.36
2023-06-05T22:01:22.695Z,23.31
2023-06-05T22:03:50.209Z,23.22
2023-06-05T22:06:20.098Z,23.22
2023-06-05T22:08:47.384Z,23.18
2023-06-05T22:11:14.888Z,23.13
2023-06-05T22:13:43.114Z,23.12
2023-06-05T22:16:10.272Z,23.16
2023-06-05T22:18:42.310Z,23.21
2023-06-05T22:21:13.802Z,23.20
2023-06-05T22:23:43.156Z,23.22
2023-06-05T22:26:09.971Z,23.12
2023-06-05T22:28:36.854Z,23.09
2023-06-05T22:31:03.850Z,23.05
2023-06-05T22:33:33.707Z,23.03
2023-06-05T22:36:02.054Z,22.96
2023-06-05T22:38:31.942Z,22.95
2023-06-05T22:40:58.686Z,22.86
2023-06-05T22:43:25.484Z,22.81
2023-06-05T22:45:52.290Z,22.66
2023-06-05T22:48:20.621Z,22.70
2023-06-05T22:50:54.336Z,22.70
2023-06-05T22:53:22.119Z,22.68
2023-06-05T22:55:48.932Z,22.50
2023-06-05T22:58:15.681Z,22.50
2023-06-05T23:00:43.496Z,22.38
2023-06-05T23:03:11.159Z,22.36
2023-06-05T23:05:38.053Z,22.20
2023-06-05T23:08:04.879Z,22.20
2023-06-05T23:10:31.729Z,22.13
2023-06-05T23:12:58.437Z,22.03
2023-06-05T23:15:28.005Z,22.01
2023-06-05T23:17:55.077Z,21.97
2023-06-05T23:20:21.913Z,21.96
2023-06-05T23:22:48.701Z,21.89
2023-06-05T23:25:17.671Z,21.80
2023-06-05T23:27:44.449Z,21.64
2023-06-05T23:30:11.733Z,21.72
2023-06-05T23:32:38.652Z,21.77
2023-06-05T23:35:05.644Z,21.72
2023-06-05T23:37:32.504Z,21.72
2023-06-05T23:39:59.247Z,21.67
2023-06-05T23:42:27.268Z,21.58
2023-06-05T23:44:54.070Z,21.70
2023-06-05T23:47:21.669Z,21.71
2023-06-05T23:49:48.844Z,21.71
2023-06-05T23:52:15.719Z,21.67
2023-06-05T23:54:42.477Z,21.60
2023-06-05T23:57:09.244Z,21.66
2023-06-05T23:59:36.055Z,21.61
